Weather at Kiskunfélegyháza Airport

Public forecast

Using degrees Celsius for public forecast. Weather courtesy of forecast.io.

Closest aviation weather report (METAR) to Kiskunfélegyháza Airport

Closest report is Kecskemét Airport, 12.6 nm (23.3 km) NNW. Retrieved 2020/12/02 11:37 UTC (0 seconds ago):

LHKE 021137Z 09006KT 5000 BR BKN006 BKN117 BKN200 M02/M03 Q1021 R12/01//95 BECMG 6000 NSW RMK YLO

Closest aviation forecast (TAF) to Kiskunfélegyháza Airport

Forecast is more than 12 hours old.

Closest forecast is Kecskemét Airport, 12.6 nm (23.3 km) NNW. Retrieved 2020-10-23 00:25 UTC (1 month ago):

TAF LHKE 222315Z 2300/2324 VRB03KT 0600 FG NSC TEMPO 2300/2306 0150 FG OVC002 BECMG 2306/2309 1500 BR BKN003 TEMPO 2308/2312 23005KT BECMG 2309/2311 5000 BR BKN005 TEMPO 2311/2315 8000 NSW SCT015 BECMG 2317/2320 1500 BR MIBCFG TEMPO 2321/2324 0800 FG